Time;durP1;ratioP1;P1;durP2;ratioP2;P2;SDS_P1;SDS_P2;PMS_P1;PMS_P2;Temp;Humidity;BMP_temperature;BMP_pressure;BME280_temperature;BME280_humidity;BME280_pressure;Samples;Min_cycle;Max_cycle;Signal;HPM_P1;HPM_P2
2021/11/29 00:01:42;;;;;;;5.60;3.00;;;8.00;97.90;;;;;;5014376;28;20508;-48
2021/11/29 00:04:08;;;;;;;6.78;3.05;;;8.00;97.90;;;;;;5018575;28;20026;-48
2021/11/29 00:06:33;;;;;;;8.90;3.65;;;8.00;97.90;;;;;;5021576;28;20032;-47
2021/11/29 00:08:59;;;;;;;8.05;4.00;;;8.00;97.90;;;;;;5018256;28;20034;-48
2021/11/29 00:11:24;;;;;;;4.65;3.15;;;8.00;97.90;;;;;;5014877;28;20025;-48
2021/11/29 00:13:50;;;;;;;8.07;4.60;;;8.00;97.90;;;;;;5014079;28;20042;-49
2021/11/29 00:16:16;;;;;;;7.25;4.20;;;8.00;97.90;;;;;;5018793;28;20026;-48
2021/11/29 00:18:41;;;;;;;6.50;4.13;;;8.00;97.90;;;;;;5018262;28;20029;-48
2021/11/29 00:21:08;;;;;;;7.28;3.17;;;8.00;97.90;;;;;;5018919;28;20025;-48
2021/11/29 00:23:34;;;;;;;7.40;2.85;;;8.00;97.90;;;;;;5014955;28;20025;-48
2021/11/29 00:26:00;;;;;;;5.65;3.75;;;8.00;97.90;;;;;;5013322;28;20018;-48
2021/11/29 00:28:26;;;;;;;5.38;2.97;;;8.00;97.90;;;;;;5015455;28;20077;-48
2021/11/29 00:30:51;;;;;;;6.13;3.13;;;8.00;98.00;;;;;;5020466;28;20029;-48
2021/11/29 00:33:17;;;;;;;3.58;2.63;;;8.00;98.00;;;;;;5013001;28;20042;-48
2021/11/29 00:35:43;;;;;;;4.45;3.13;;;8.00;97.90;;;;;;5013913;28;20026;-48
2021/11/29 00:38:11;;;;;;;6.05;2.85;;;8.00;97.90;;;;;;5022252;28;20026;-48
2021/11/29 00:40:37;;;;;;;5.35;3.55;;;8.00;98.00;;;;;;5015076;28;20053;-48
2021/11/29 00:43:03;;;;;;;6.00;3.53;;;8.00;97.90;;;;;;5017499;28;20369;-48
2021/11/29 00:45:29;;;;;;;6.57;2.65;;;8.00;97.90;;;;;;5015501;28;20112;-48
2021/11/29 00:47:55;;;;;;;7.68;3.78;;;8.00;98.00;;;;;;5016526;28;20030;-48
2021/11/29 00:50:21;;;;;;;5.97;3.47;;;8.00;98.00;;;;;;5021578;28;20527;-48
2021/11/29 00:52:47;;;;;;;5.75;3.08;;;8.00;98.00;;;;;;5019128;28;20085;-47
2021/11/29 00:55:14;;;;;;;7.00;3.50;;;8.00;97.90;;;;;;5016492;28;20052;-48
2021/11/29 00:57:41;;;;;;;7.53;4.25;;;8.00;98.00;;;;;;5017266;28;20022;-48
2021/11/29 01:00:13;;;;;;;6.10;3.55;;;8.00;98.00;;;;;;5010509;28;20050;-48
2021/11/29 01:02:39;;;;;;;10.57;3.92;;;8.00;98.00;;;;;;5013554;28;20689;-48
2021/11/29 01:05:05;;;;;;;6.65;3.95;;;8.00;97.90;;;;;;5010542;28;20437;-48
2021/11/29 01:07:31;;;;;;;6.35;3.72;;;8.00;98.00;;;;;;5018905;28;20305;-48
2021/11/29 01:09:56;;;;;;;8.15;3.50;;;8.00;98.00;;;;;;5015515;28;20600;-48
2021/11/29 01:12:22;;;;;;;6.25;4.10;;;8.00;97.90;;;;;;5025806;28;20056;-48
2021/11/29 01:14:48;;;;;;;6.75;4.18;;;8.00;98.00;;;;;;5014513;28;20033;-48
2021/11/29 01:17:14;;;;;;;8.57;4.10;;;8.00;98.00;;;;;;5013899;28;20372;-48
2021/11/29 01:19:39;;;;;;;6.35;3.28;;;8.00;98.00;;;;;;5024630;28;20364;-48
2021/11/29 01:22:05;;;;;;;8.02;3.53;;;8.00;98.00;;;;;;5019521;28;20432;-48
2021/11/29 01:24:31;;;;;;;8.85;4.60;;;8.00;98.00;;;;;;5019344;28;20309;-48
2021/11/29 01:26:58;;;;;;;5.55;3.20;;;8.00;98.30;;;;;;5017227;28;20513;-48
2021/11/29 01:29:23;;;;;;;7.82;4.45;;;8.00;98.00;;;;;;5019950;28;20065;-48
2021/11/29 01:31:49;;;;;;;8.60;4.25;;;8.00;98.00;;;;;;5023357;28;20099;-48
2021/11/29 01:34:16;;;;;;;10.30;4.45;;;8.00;98.00;;;;;;5017389;28;20037;-48
2021/11/29 01:36:42;;;;;;;7.82;4.80;;;8.00;98.00;;;;;;5018637;28;20026;-48
2021/11/29 01:39:09;;;;;;;10.25;4.72;;;8.00;98.00;;;;;;5022619;28;20505;-48
2021/11/29 01:41:35;;;;;;;6.97;3.53;;;8.00;98.00;;;;;;5019425;28;20091;-48
2021/11/29 01:44:01;;;;;;;9.15;4.38;;;8.00;98.00;;;;;;5019545;28;20029;-48
2021/11/29 01:46:26;;;;;;;7.13;4.28;;;8.00;97.90;;;;;;5017428;28;20049;-48
2021/11/29 01:48:52;;;;;;;8.57;4.40;;;8.00;98.00;;;;;;5016811;28;20494;-48
2021/11/29 01:51:18;;;;;;;7.38;4.07;;;8.00;98.00;;;;;;5021091;28;20033;-49
2021/11/29 01:53:44;;;;;;;7.57;4.30;;;8.00;98.00;;;;;;5021705;28;20507;-48
2021/11/29 01:56:10;;;;;;;8.32;3.90;;;8.00;98.00;;;;;;5018828;28;20361;-48
2021/11/29 01:58:39;;;;;;;6.60;3.97;;;8.00;98.00;;;;;;5017398;28;20526;-48
2021/11/29 02:01:14;;;;;;;5.95;3.63;;;8.00;98.00;;;;;;5020441;28;20437;-48
2021/11/29 02:03:40;;;;;;;6.75;4.68;;;8.00;98.00;;;;;;5014098;28;20030;-48
2021/11/29 02:06:06;;;;;;;5.65;3.30;;;8.00;98.00;;;;;;5016829;28;20022;-48
2021/11/29 02:08:32;;;;;;;8.50;3.67;;;8.00;98.00;;;;;;5022999;28;20318;-48
2021/11/29 02:10:58;;;;;;;7.25;3.95;;;8.00;98.00;;;;;;5021045;28;20451;-48
2021/11/29 02:13:23;;;;;;;6.65;3.70;;;8.00;98.00;;;;;;5022198;28;20361;-48
2021/11/29 02:15:52;;;;;;;6.82;3.72;;;8.00;98.00;;;;;;5012076;28;20036;-48
2021/11/29 02:18:27;;;;;;;10.65;4.72;;;8.00;98.00;;;;;;5022157;28;20429;-48
2021/11/29 02:20:59;;;;;;;7.10;4.13;;;8.00;97.90;;;;;;5014489;28;20371;-47
2021/11/29 02:23:24;;;;;;;6.55;3.90;;;8.00;98.00;;;;;;5023945;28;20487;-49
2021/11/29 02:25:50;;;;;;;4.78;2.88;;;8.00;98.00;;;;;;5018147;28;20291;-48
2021/11/29 02:28:19;;;;;;;6.95;3.75;;;8.00;97.90;;;;;;5024221;28;20052;-48
2021/11/29 02:30:45;;;;;;;4.32;2.95;;;8.00;98.00;;;;;;5019551;28;20033;-48
2021/11/29 02:33:11;;;;;;;5.70;3.67;;;8.00;97.90;;;;;;5019899;28;20053;-48
2021/11/29 02:35:36;;;;;;;6.97;2.97;;;8.00;98.00;;;;;;5017126;28;20030;-48
2021/11/29 02:38:02;;;;;;;6.85;3.85;;;8.00;98.00;;;;;;5022089;28;20029;-48
2021/11/29 02:40:28;;;;;;;5.78;3.55;;;8.00;98.00;;;;;;5018914;28;20408;-48
2021/11/29 02:42:53;;;;;;;5.95;3.25;;;8.00;98.00;;;;;;5021653;28;20032;-48
2021/11/29 02:45:19;;;;;;;4.88;3.42;;;8.00;98.00;;;;;;5013594;28;20505;-48
2021/11/29 02:47:45;;;;;;;5.80;3.58;;;8.00;98.00;;;;;;5019471;28;20037;-48
2021/11/29 02:50:10;;;;;;;7.72;4.22;;;8.00;98.00;;;;;;5022066;28;20021;-48
2021/11/29 02:52:36;;;;;;;6.82;3.67;;;8.00;98.00;;;;;;5019553;28;20038;-48
2021/11/29 02:55:03;;;;;;;5.57;3.22;;;8.00;98.00;;;;;;5016700;28;20022;-48
2021/11/29 02:57:29;;;;;;;6.60;3.63;;;8.00;98.00;;;;;;5022130;28;20030;-48
2021/11/29 02:59:55;;;;;;;6.80;3.60;;;8.00;97.90;;;;;;5017377;28;20052;-48
2021/11/29 03:02:21;;;;;;;6.95;3.60;;;8.00;98.00;;;;;;5017784;28;20365;-48
2021/11/29 03:04:48;;;;;;;4.85;2.80;;;8.00;97.90;;;;;;5018980;28;20049;-48
2021/11/29 03:07:14;;;;;;;5.25;3.70;;;8.00;98.00;;;;;;5015083;28;20037;-48
2021/11/29 03:09:41;;;;;;;6.00;3.33;;;8.00;98.00;;;;;;5018397;28;20025;-48
2021/11/29 03:12:07;;;;;;;5.40;3.05;;;8.10;98.00;;;;;;5015393;28;20026;-48
2021/11/29 03:14:33;;;;;;;4.55;2.78;;;8.00;98.00;;;;;;5015690;28;20033;-47
2021/11/29 03:16:59;;;;;;;4.03;2.65;;;8.00;98.00;;;;;;5017062;28;20030;-48
2021/11/29 03:19:30;;;;;;;4.00;2.40;;;8.00;98.00;;;;;;5019360;28;20361;-48
2021/11/29 03:21:56;;;;;;;2.65;1.83;;;8.00;98.00;;;;;;5015681;28;20057;-48
2021/11/29 03:24:22;;;;;;;3.83;2.65;;;8.00;98.00;;;;;;5020389;28;20033;-48
2021/11/29 03:26:47;;;;;;;5.47;1.80;;;8.00;98.00;;;;;;5013127;28;20052;-48
2021/11/29 03:29:16;;;;;;;4.13;1.50;;;8.00;98.00;;;;;;5020544;28;20398;-48
2021/11/29 03:31:43;;;;;;;5.03;1.60;;;8.00;98.00;;;;;;5012458;28;20252;-48
2021/11/29 03:34:13;;;;;;;2.25;1.67;;;8.00;98.30;;;;;;5000550;28;20036;-48
2021/11/29 03:36:42;;;;;;;3.30;2.00;;;8.00;98.00;;;;;;5014970;28;20049;-48
2021/11/29 03:39:12;;;;;;;4.73;2.33;;;8.00;98.00;;;;;;5020211;28;20037;-48
2021/11/29 03:41:39;;;;;;;3.33;1.75;;;8.00;98.00;;;;;;5018964;28;20432;-48
2021/11/29 03:44:05;;;;;;;1.98;1.70;;;8.00;98.00;;;;;;5019585;28;20029;-48
2021/11/29 03:46:30;;;;;;;2.38;1.60;;;8.00;98.00;;;;;;5014423;28;20064;-48
2021/11/29 03:48:56;;;;;;;4.15;1.95;;;8.00;98.00;;;;;;5018874;28;20022;-48
2021/11/29 03:51:22;;;;;;;3.65;1.92;;;8.00;98.10;;;;;;5015215;28;20125;-48
2021/11/29 03:53:48;;;;;;;1.88;1.40;;;8.00;98.00;;;;;;5019349;28;20052;-48
2021/11/29 03:56:13;;;;;;;2.67;1.70;;;8.00;98.10;;;;;;5017923;28;20057;-48
2021/11/29 03:58:39;;;;;;;1.50;1.30;;;8.00;98.00;;;;;;5020503;28;20083;-48
2021/11/29 04:01:04;;;;;;;3.53;1.50;;;8.00;98.00;;;;;;5015358;28;20030;-48
2021/11/29 04:03:32;;;;;;;2.92;1.65;;;8.00;97.90;;;;;;5019618;28;20026;-48
2021/11/29 04:05:58;;;;;;;2.28;1.60;;;8.00;98.00;;;;;;5011768;28;20033;-47
2021/11/29 04:08:24;;;;;;;2.15;1.40;;;8.00;98.00;;;;;;5016570;28;20033;-48
2021/11/29 04:10:50;;;;;;;3.50;1.85;;;8.00;98.00;;;;;;5019064;28;20026;-48
2021/11/29 04:13:16;;;;;;;2.55;1.58;;;8.00;98.00;;;;;;5021846;28;20026;-48
2021/11/29 04:15:41;;;;;;;4.65;2.25;;;8.00;98.00;;;;;;5011916;28;20484;-48
2021/11/29 04:18:07;;;;;;;2.08;1.65;;;8.00;97.90;;;;;;5018287;28;20068;-47
2021/11/29 04:20:33;;;;;;;2.25;1.83;;;8.00;98.00;;;;;;5018060;28;20109;-48
2021/11/29 04:22:59;;;;;;;2.42;1.75;;;8.00;97.90;;;;;;5022343;28;20085;-48
2021/11/29 04:25:26;;;;;;;5.03;1.83;;;8.00;97.90;;;;;;5020861;28;20038;-48
2021/11/29 04:27:53;;;;;;;2.13;1.55;;;8.00;97.90;;;;;;5021675;28;20104;-48
2021/11/29 04:30:23;;;;;;;2.97;2.00;;;8.00;97.90;;;;;;5015742;28;20524;-48
2021/11/29 04:32:51;;;;;;;6.80;2.60;;;8.00;97.90;;;;;;5019990;28;20046;-48
2021/11/29 04:35:18;;;;;;;3.67;2.10;;;8.00;97.90;;;;;;5010868;28;20120;-48
2021/11/29 04:37:43;;;;;;;3.80;2.30;;;8.00;97.90;;;;;;5019581;28;20120;-48
2021/11/29 04:40:10;;;;;;;2.88;1.88;;;8.00;97.90;;;;;;5018256;28;20113;-48
2021/11/29 04:42:36;;;;;;;3.88;2.28;;;8.00;97.90;;;;;;5018773;28;20089;-48
2021/11/29 04:45:03;;;;;;;4.35;2.50;;;8.00;97.90;;;;;;5019685;28;20573;-48
2021/11/29 04:47:28;;;;;;;2.92;2.22;;;8.00;97.90;;;;;;5022050;28;20233;-48
2021/11/29 04:49:54;;;;;;;4.22;2.88;;;8.00;97.80;;;;;;5018655;28;20345;-48
2021/11/29 04:52:20;;;;;;;2.53;2.10;;;8.00;97.90;;;;;;5019952;28;20034;-48
2021/11/29 04:54:45;;;;;;;3.80;2.75;;;8.00;97.90;;;;;;5025229;28;20036;-48
2021/11/29 04:57:11;;;;;;;5.07;2.75;;;8.00;97.80;;;;;;5018689;28;20108;-49
2021/11/29 04:59:37;;;;;;;4.30;2.92;;;8.00;97.90;;;;;;5020283;28;20080;-48
2021/11/29 05:02:03;;;;;;;5.25;2.92;;;8.00;97.90;;;;;;5019798;28;20114;-48
2021/11/29 05:04:29;;;;;;;9.23;3.95;;;7.90;97.80;;;;;;5024212;28;20040;-47
2021/11/29 05:06:55;;;;;;;5.20;3.13;;;8.00;97.80;;;;;;5014546;28;20445;-48
2021/11/29 05:09:21;;;;;;;6.65;3.72;;;7.90;97.80;;;;;;5022561;28;20096;-48
2021/11/29 05:11:46;;;;;;;6.35;3.55;;;8.00;97.90;;;;;;5023709;28;20025;-48
2021/11/29 05:14:12;;;;;;;7.57;3.50;;;7.90;97.80;;;;;;5023103;28;20037;-48
2021/11/29 05:16:39;;;;;;;4.85;2.90;;;7.90;97.80;;;;;;5018588;28;20369;-48
2021/11/29 05:19:06;;;;;;;9.20;3.92;;;7.90;97.80;;;;;;5021419;28;20113;-48
2021/11/29 05:21:33;;;;;;;8.02;4.55;;;7.90;97.80;;;;;;5020246;28;20033;-48
2021/11/29 05:23:58;;;;;;;6.82;3.97;;;8.00;97.90;;;;;;5021637;28;20058;-48
2021/11/29 05:26:26;;;;;;;4.30;3.35;;;8.00;97.90;;;;;;5017266;28;20054;-48
2021/11/29 05:28:52;;;;;;;11.05;4.63;;;7.90;97.80;;;;;;5024698;28;20033;-48
2021/11/29 05:31:19;;;;;;;5.07;3.38;;;7.90;97.80;;;;;;5021946;28;20021;-47
2021/11/29 05:33:44;;;;;;;7.57;4.13;;;8.00;97.80;;;;;;5023763;28;20084;-48
2021/11/29 05:36:10;;;;;;;9.25;4.35;;;7.90;97.80;;;;;;5021378;28;20022;-48
2021/11/29 05:38:36;;;;;;;8.63;4.03;;;7.90;97.80;;;;;;5024745;28;20033;-48
2021/11/29 05:41:02;;;;;;;7.10;3.60;;;7.90;97.80;;;;;;5025010;28;20533;-48
2021/11/29 05:43:28;;;;;;;8.23;4.45;;;7.90;97.80;;;;;;5020637;28;20033;-48
2021/11/29 05:45:53;;;;;;;7.20;3.33;;;7.90;97.80;;;;;;5018286;28;20032;-48
2021/11/29 05:48:19;;;;;;;7.47;4.28;;;7.90;97.80;;;;;;5016991;28;20396;-48
2021/11/29 05:50:45;;;;;;;6.15;3.88;;;7.90;97.80;;;;;;5021870;28;20030;-48
2021/11/29 05:53:11;;;;;;;12.48;4.97;;;7.90;97.80;;;;;;5021355;28;20039;-48
2021/11/29 05:55:36;;;;;;;9.30;4.95;;;7.90;97.80;;;;;;5022217;28;20349;-48
2021/11/29 05:58:02;;;;;;;11.13;5.05;;;7.90;97.80;;;;;;5023328;28;20112;-48
2021/11/29 06:00:29;;;;;;;7.70;4.10;;;7.90;97.80;;;;;;5022176;28;20247;-48
2021/11/29 06:02:54;;;;;;;9.13;4.53;;;7.90;97.80;;;;;;5021271;28;20029;-48
2021/11/29 06:05:23;;;;;;;8.60;5.03;;;7.90;97.80;;;;;;5020564;28;20045;-48
2021/11/29 06:07:48;;;;;;;9.82;4.40;;;7.90;97.80;;;;;;5023810;28;20041;-48
2021/11/29 06:10:14;;;;;;;13.63;5.18;;;7.90;97.80;;;;;;5019676;28;20072;-49
2021/11/29 06:12:42;;;;;;;11.98;5.47;;;7.90;97.80;;;;;;5021532;28;20117;-47
2021/11/29 06:15:09;;;;;;;10.80;5.60;;;7.90;97.80;;;;;;5022538;28;20033;-48
2021/11/29 06:17:34;;;;;;;9.60;5.55;;;7.90;97.80;;;;;;5016261;28;20030;-48
2021/11/29 06:20:00;;;;;;;10.60;5.28;;;7.90;97.80;;;;;;5020523;28;20026;-48
2021/11/29 06:22:25;;;;;;;11.15;5.60;;;7.90;97.80;;;;;;5023253;28;20075;-48
2021/11/29 06:24:51;;;;;;;13.02;5.22;;;7.90;97.80;;;;;;5022046;28;20373;-47
2021/11/29 06:27:17;;;;;;;12.23;5.93;;;7.90;97.80;;;;;;5021483;28;20345;-48
2021/11/29 06:29:44;;;;;;;14.70;6.35;;;7.90;97.90;;;;;;5023438;28;20030;-48
2021/11/29 06:32:10;;;;;;;14.60;5.93;;;7.90;97.80;;;;;;5018805;28;20069;-48
2021/11/29 06:34:36;;;;;;;12.02;5.38;;;7.90;97.80;;;;;;5020474;28;20390;-48
2021/11/29 06:37:02;;;;;;;8.43;6.03;;;7.90;97.80;;;;;;5022598;28;20365;-48
2021/11/29 06:39:29;;;;;;;13.90;5.70;;;7.80;97.60;;;;;;5020119;28;20369;-48
2021/11/29 06:41:54;;;;;;;10.48;6.10;;;7.90;97.80;;;;;;5022690;28;20026;-48
2021/11/29 06:44:21;;;;;;;12.38;6.03;;;7.90;97.60;;;;;;5022187;28;20089;-48
2021/11/29 06:46:46;;;;;;;11.13;6.40;;;7.90;97.50;;;;;;5018081;28;20069;-48
2021/11/29 06:49:12;;;;;;;9.52;5.32;;;7.90;97.50;;;;;;5019781;28;20060;-48
2021/11/29 06:51:38;;;;;;;13.95;5.45;;;7.90;97.50;;;;;;5023871;28;20055;-47
2021/11/29 06:54:04;;;;;;;15.40;5.60;;;7.90;97.50;;;;;;5019412;28;20042;-47
2021/11/29 06:56:30;;;;;;;13.43;5.50;;;7.90;97.50;;;;;;5022752;28;20026;-48
2021/11/29 06:58:56;;;;;;;11.63;6.10;;;7.90;97.50;;;;;;5021328;28;20048;-48
2021/11/29 07:01:21;;;;;;;13.43;5.88;;;7.90;97.50;;;;;;5019386;28;20133;-48
2021/11/29 07:03:49;;;;;;;16.88;6.82;;;7.80;97.50;;;;;;5019666;28;20029;-48
2021/11/29 07:06:15;;;;;;;12.90;6.72;;;7.90;97.50;;;;;;5021725;28;20477;-48
2021/11/29 07:08:41;;;;;;;14.15;6.22;;;7.90;97.50;;;;;;5020085;28;20056;-48
2021/11/29 07:11:06;;;;;;;14.88;6.78;;;7.90;97.50;;;;;;5023646;28;20348;-48
2021/11/29 07:13:32;;;;;;;15.38;6.68;;;7.90;97.50;;;;;;5019953;28;20053;-48
2021/11/29 07:15:58;;;;;;;17.13;6.65;;;7.90;97.50;;;;;;5022220;28;20026;-48
2021/11/29 07:18:23;;;;;;;13.45;5.35;;;7.90;97.50;;;;;;5019709;28;20033;-48
2021/11/29 07:20:49;;;;;;;13.68;6.78;;;7.90;97.50;;;;;;5021553;28;20033;-48
2021/11/29 07:23:15;;;;;;;10.18;5.22;;;7.90;97.80;;;;;;5021585;28;20029;-48
2021/11/29 07:25:41;;;;;;;14.95;5.85;;;7.90;97.50;;;;;;5020140;28;20468;-48
2021/11/29 07:28:07;;;;;;;11.63;5.28;;;7.90;97.50;;;;;;5022829;28;20111;-48
2021/11/29 07:30:33;;;;;;;13.13;6.53;;;7.90;97.60;;;;;;5019666;28;20026;-47
2021/11/29 07:32:58;;;;;;;12.65;5.97;;;7.90;97.50;;;;;;5021588;28;20037;-48
2021/11/29 07:35:27;;;;;;;11.40;6.20;;;7.90;97.50;;;;;;5019391;28;20829;-48
2021/11/29 07:37:53;;;;;;;9.63;5.60;;;7.90;97.50;;;;;;5021674;28;20033;-48
2021/11/29 07:40:20;;;;;;;8.80;5.18;;;7.90;97.60;;;;;;5021128;28;20018;-48
2021/11/29 07:42:45;;;;;;;14.02;6.38;;;7.90;97.50;;;;;;5020815;28;20037;-48
2021/11/29 07:45:12;;;;;;;10.15;5.13;;;7.90;97.50;;;;;;5021607;28;20201;-48
2021/11/29 07:47:39;;;;;;;8.25;5.43;;;7.90;97.50;;;;;;5018307;28;20032;-48
2021/11/29 07:50:07;;;;;;;15.90;5.85;;;7.90;97.60;;;;;;5019133;28;20022;-48
2021/11/29 07:52:32;;;;;;;12.10;6.20;;;8.00;97.60;;;;;;5021966;28;20041;-48
2021/11/29 07:54:58;;;;;;;14.82;6.15;;;7.90;97.50;;;;;;5019751;28;20028;-48
2021/11/29 07:57:23;;;;;;;13.77;6.60;;;7.90;97.50;;;;;;5020786;28;20064;-48
2021/11/29 07:59:49;;;;;;;15.48;6.05;;;7.90;97.50;;;;;;5021085;28;20096;-48
2021/11/29 08:02:15;;;;;;;13.43;7.15;;;7.90;97.50;;;;;;5016133;28;20356;-48
2021/11/29 08:04:41;;;;;;;16.60;6.80;;;7.90;97.60;;;;;;5018542;28;20062;-48
2021/11/29 08:07:07;;;;;;;15.30;5.93;;;7.90;97.60;;;;;;5021635;28;20537;-48
2021/11/29 08:09:32;;;;;;;13.90;6.25;;;7.90;97.60;;;;;;5019350;28;20116;-48
2021/11/29 08:11:58;;;;;;;24.55;7.65;;;8.00;97.50;;;;;;5021870;28;20021;-48
2021/11/29 08:14:24;;;;;;;20.50;6.43;;;7.90;97.50;;;;;;5020207;28;20034;-48
2021/11/29 08:16:50;;;;;;;12.75;5.55;;;7.90;97.60;;;;;;5018824;28;20136;-47
2021/11/29 08:19:15;;;;;;;12.77;5.75;;;7.90;97.60;;;;;;5021713;28;20426;-48
2021/11/29 08:21:41;;;;;;;13.57;6.05;;;7.90;97.60;;;;;;5026420;28;20026;-48
2021/11/29 08:24:07;;;;;;;14.57;5.68;;;7.90;97.60;;;;;;5028510;28;20017;-48
2021/11/29 08:26:32;;;;;;;15.02;6.82;;;7.90;97.60;;;;;;5024829;28;20073;-48
2021/11/29 08:28:58;;;;;;;13.98;6.63;;;7.90;97.60;;;;;;5025653;28;20029;-47
2021/11/29 08:31:24;;;;;;;15.20;4.72;;;7.90;97.60;;;;;;5028708;28;20104;-48
2021/11/29 08:33:49;;;;;;;7.93;4.28;;;8.00;97.60;;;;;;5023104;28;20535;-48
2021/11/29 08:36:15;;;;;;;10.55;4.13;;;7.90;97.60;;;;;;5026864;28;20040;-48
2021/11/29 08:38:40;;;;;;;9.43;5.13;;;8.00;97.60;;;;;;5027280;28;20465;-48
2021/11/29 08:41:06;;;;;;;10.73;4.93;;;8.00;97.60;;;;;;5026621;28;20021;-48
2021/11/29 08:43:32;;;;;;;13.90;5.85;;;8.00;97.60;;;;;;5027812;28;20325;-48
2021/11/29 08:45:57;;;;;;;8.77;5.30;;;8.00;97.60;;;;;;5024964;28;20032;-48
2021/11/29 08:48:24;;;;;;;8.80;4.82;;;8.00;97.60;;;;;;5021748;28;20103;-48
2021/11/29 08:50:54;;;;;;;11.57;6.03;;;8.00;97.60;;;;;;5028592;28;20169;-48
2021/11/29 08:53:22;;;;;;;10.18;5.40;;;8.00;97.60;;;;;;5026198;28;20041;-48
2021/11/29 08:55:49;;;;;;;9.43;4.70;;;8.00;97.60;;;;;;5025613;28;20076;-48
2021/11/29 08:58:15;;;;;;;9.48;4.60;;;8.00;97.70;;;;;;5027911;28;20029;-48
2021/11/29 09:00:43;;;;;;;7.85;3.70;;;8.00;97.70;;;;;;5025831;28;20029;-48
2021/11/29 09:03:09;;;;;;;9.65;4.32;;;8.00;97.70;;;;;;5022398;28;20065;-48
2021/11/29 09:05:40;;;;;;;10.60;4.00;;;8.00;97.60;;;;;;5027430;28;20123;-48
2021/11/29 09:08:06;;;;;;;15.43;4.18;;;8.00;97.70;;;;;;5026708;28;20453;-47
2021/11/29 09:10:33;;;;;;;13.52;4.80;;;8.00;97.70;;;;;;5026185;28;20149;-48
2021/11/29 09:13:00;;;;;;;11.02;4.80;;;8.00;97.70;;;;;;5028357;28;20033;-48
2021/11/29 09:15:26;;;;;;;9.82;4.68;;;8.00;97.70;;;;;;5024056;28;20030;-48
2021/11/29 09:17:53;;;;;;;11.10;4.43;;;8.00;97.60;;;;;;5020694;28;20025;-47
2021/11/29 09:20:22;;;;;;;6.85;3.45;;;8.00;97.70;;;;;;5026112;28;20106;-47
2021/11/29 09:22:49;;;;;;;11.32;4.60;;;8.00;97.60;;;;;;5027146;28;20101;-48
2021/11/29 09:25:14;;;;;;;9.57;4.68;;;8.00;97.60;;;;;;5026345;28;20037;-48
2021/11/29 09:27:40;;;;;;;8.57;4.10;;;8.00;97.60;;;;;;5025661;28;20061;-48
2021/11/29 09:30:08;;;;;;;6.65;4.18;;;8.00;97.70;;;;;;5025085;28;20040;-48
2021/11/29 09:32:38;;;;;;;6.15;3.95;;;8.10;97.70;;;;;;5023773;28;20029;-48
2021/11/29 09:35:08;;;;;;;9.10;4.30;;;8.10;97.70;;;;;;5020690;28;20068;-48
2021/11/29 09:37:36;;;;;;;;;;;8.00;97.70;;;;;;5024279;28;20033;-48
2021/11/29 09:40:06;;;;;;;7.50;4.13;;;8.00;97.40;;;;;;5022117;28;19991;-48
2021/11/29 09:42:33;;;;;;;8.40;3.58;;;8.00;97.50;;;;;;5021824;28;20476;-48
2021/11/29 09:44:59;;;;;;;8.52;4.00;;;8.00;97.20;;;;;;5024089;28;20033;-48
2021/11/29 09:47:25;;;;;;;10.20;3.28;;;8.00;97.00;;;;;;5021208;28;20029;-48
2021/11/29 09:49:55;;;;;;;6.28;3.13;;;8.10;97.10;;;;;;5021875;28;20117;-48
2021/11/29 09:52:21;;;;;;;5.03;2.47;;;8.10;97.10;;;;;;5022326;28;20333;-47
2021/11/29 09:54:48;;;;;;;4.75;3.03;;;8.10;97.10;;;;;;5021695;28;20034;-48
2021/11/29 09:57:13;;;;;;;6.45;3.30;;;8.10;97.10;;;;;;5022967;28;20026;-48
2021/11/29 09:59:39;;;;;;;4.75;2.72;;;8.10;97.10;;;;;;5021540;28;20137;-48
2021/11/29 10:02:08;;;;;;;4.85;3.45;;;8.10;97.10;;;;;;5023562;28;20021;-47
2021/11/29 10:04:34;;;;;;;7.38;2.97;;;8.10;97.20;;;;;;5016486;28;20029;-48
2021/11/29 10:07:03;;;;;;;7.10;3.15;;;8.10;97.20;;;;;;5022421;28;20071;-48
2021/11/29 10:09:38;;;;;;;3.92;2.25;;;8.10;97.20;;;;;;5019879;28;20327;-47
2021/11/29 10:12:10;;;;;;;6.15;2.85;;;8.10;97.20;;;;;;5021621;28;20080;-48
2021/11/29 10:14:36;;;;;;;3.15;2.50;;;8.10;97.30;;;;;;5022406;28;20477;-48
2021/11/29 10:17:02;;;;;;;9.27;3.13;;;8.10;97.40;;;;;;5022683;28;20056;-48
2021/11/29 10:19:38;;;;;;;6.85;3.17;;;8.10;97.40;;;;;;5016591;28;20068;-48
2021/11/29 10:22:21;;;;;;;4.80;2.78;;;8.10;97.40;;;;;;5022151;28;20091;-48
2021/11/29 10:24:49;;;;;;;3.70;2.55;;;8.10;97.40;;;;;;5020570;28;20026;-49
2021/11/29 10:27:16;;;;;;;5.78;3.10;;;8.10;97.50;;;;;;5021038;28;20113;-48
2021/11/29 10:29:56;;;;;;;7.78;3.13;;;8.10;97.50;;;;;;5021991;28;20457;-48
2021/11/29 10:32:40;;;;;;;7.43;3.15;;;8.20;97.50;;;;;;5020703;28;20129;-48
2021/11/29 10:35:08;;;;;;;7.93;3.22;;;8.20;97.60;;;;;;5019161;28;20095;-48
2021/11/29 10:37:36;;;;;;;6.78;2.67;;;8.20;97.60;;;;;;5020623;28;20404;-48
2021/11/29 10:40:09;;;;;;;3.83;2.53;;;8.20;97.60;;;;;;5023522;28;20037;-48
2021/11/29 10:42:35;;;;;;;7.88;3.35;;;8.20;97.60;;;;;;5022269;28;20464;-48
2021/11/29 10:45:01;;;;;;;7.47;3.28;;;8.20;97.70;;;;;;5020604;28;20080;-48
2021/11/29 10:47:27;;;;;;;9.15;2.50;;;8.20;97.70;;;;;;5023618;28;20029;-48
2021/11/29 10:49:56;;;;;;;4.35;2.38;;;8.20;97.70;;;;;;5017081;28;20108;-48
2021/11/29 10:52:28;;;;;;;4.50;2.58;;;8.20;97.80;;;;;;5022131;28;20064;-48
2021/11/29 10:54:54;;;;;;;10.18;2.58;;;8.20;98.10;;;;;;5022047;28;20040;-48
2021/11/29 10:57:22;;;;;;;5.10;2.20;;;8.20;97.80;;;;;;5020147;28;20408;-48
2021/11/29 10:59:49;;;;;;;3.85;2.53;;;8.20;97.80;;;;;;5022901;28;20100;-48
2021/11/29 11:02:18;;;;;;;6.85;2.08;;;8.30;97.80;;;;;;5020175;28;20056;-48
2021/11/29 11:04:46;;;;;;;4.40;2.08;;;8.20;97.80;;;;;;5020069;28;20116;-48
2021/11/29 11:07:20;;;;;;;7.65;1.90;;;8.30;97.90;;;;;;5020200;28;20524;-48
2021/11/29 11:09:57;;;;;;;5.13;2.15;;;8.30;97.90;;;;;;5019679;28;20026;-48
2021/11/29 11:12:28;;;;;;;8.18;1.85;;;8.20;97.80;;;;;;5020932;28;20037;-48
2021/11/29 11:14:57;;;;;;;4.75;1.92;;;8.30;97.90;;;;;;5019832;28;20038;-48
2021/11/29 11:17:32;;;;;;;5.82;1.88;;;8.30;97.90;;;;;;5022846;28;20029;-47
2021/11/29 11:20:03;;;;;;;2.33;1.40;;;8.30;97.90;;;;;;5015955;28;20075;-48
2021/11/29 11:22:30;;;;;;;7.35;2.22;;;8.30;97.90;;;;;;5022021;28;20056;-48
2021/11/29 11:24:57;;;;;;;6.95;1.83;;;8.30;97.90;;;;;;5019531;28;20645;-47
2021/11/29 11:27:25;;;;;;;5.63;2.88;;;8.30;97.90;;;;;;5023040;28;20456;-48
2021/11/29 11:29:56;;;;;;;6.97;2.25;;;8.30;97.90;;;;;;5020512;28;20022;-47
2021/11/29 11:32:21;;;;;;;3.28;2.25;;;8.30;97.90;;;;;;5021315;28;20112;-48
2021/11/29 11:34:53;;;;;;;4.30;1.80;;;8.30;98.00;;;;;;5019801;28;20451;-47
2021/11/29 11:37:21;;;;;;;5.10;2.10;;;8.30;98.00;;;;;;5018497;28;20076;-48
2021/11/29 11:39:47;;;;;;;4.03;2.53;;;8.30;98.00;;;;;;5019584;28;20022;-48
2021/11/29 11:42:14;;;;;;;2.90;1.40;;;8.30;97.90;;;;;;5021514;28;20456;-48
2021/11/29 11:44:40;;;;;;;3.70;1.88;;;8.30;97.90;;;;;;5020781;28;20030;-48
2021/11/29 11:47:08;;;;;;;3.28;2.03;;;8.40;97.90;;;;;;5020091;28;20029;-48
2021/11/29 11:49:36;;;;;;;4.30;2.28;;;8.30;98.00;;;;;;5011534;28;20049;-48
2021/11/29 11:52:03;;;;;;;4.93;2.67;;;8.30;98.00;;;;;;5022793;28;20040;-48
2021/11/29 11:54:29;;;;;;;5.43;2.45;;;8.40;98.00;;;;;;5019039;28;20040;-48
2021/11/29 11:56:54;;;;;;;4.57;2.33;;;8.40;98.00;;;;;;5018317;28;20022;-48
2021/11/29 11:59:26;;;;;;;7.93;2.78;;;8.40;98.00;;;;;;5015069;28;20123;-48
2021/11/29 12:01:56;;;;;;;7.75;2.40;;;8.40;98.20;;;;;;5020595;28;20022;-48
2021/11/29 12:04:22;;;;;;;4.83;2.27;;;8.40;98.20;;;;;;5018545;28;20030;-48
2021/11/29 12:06:48;;;;;;;6.43;2.30;;;8.40;98.20;;;;;;5018626;28;20277;-48
2021/11/29 12:09:15;;;;;;;2.17;1.23;;;8.40;98.10;;;;;;5021736;28;20030;-48
2021/11/29 12:11:46;;;;;;;4.28;2.10;;;8.40;98.10;;;;;;5018482;28;20038;-48
2021/11/29 12:14:22;;;;;;;2.67;1.70;;;8.40;98.10;;;;;;5018374;28;20473;-48
2021/11/29 12:16:51;;;;;;;7.20;2.05;;;8.40;98.10;;;;;;5018475;28;20061;-48
2021/11/29 12:19:39;;;;;;;2.33;1.52;;;8.40;98.10;;;;;;5017226;28;20041;-48
2021/11/29 12:22:26;;;;;;;5.15;1.48;;;8.40;98.20;;;;;;5020240;28;20105;-48
2021/11/29 12:25:17;;;;;;;6.20;1.80;;;8.40;98.20;;;;;;5019202;28;20037;-47
2021/11/29 12:27:46;;;;;;;2.45;1.52;;;8.40;98.20;;;;;;5019197;28;20028;-48
2021/11/29 12:30:29;;;;;;;6.00;1.85;;;8.50;98.30;;;;;;5021085;28;20034;-48
2021/11/29 12:33:01;;;;;;;7.13;1.92;;;8.40;98.30;;;;;;5018543;28;20026;-48
2021/11/29 12:35:37;;;;;;;3.47;1.70;;;8.40;98.20;;;;;;5013891;28;20068;-48
2021/11/29 12:38:15;;;;;;;3.25;1.30;;;8.40;98.30;;;;;;5019074;28;20026;-48
2021/11/29 12:40:50;;;;;;;4.55;1.55;;;8.50;98.20;;;;;;5020932;28;20037;-48
2021/11/29 12:43:43;;;;;;;3.95;1.52;;;8.40;98.20;;;;;;5019049;28;20346;-48
2021/11/29 12:46:38;;;;;;;2.83;1.70;;;8.50;98.20;;;;;;5021662;28;20052;-48
2021/11/29 12:49:06;;;;;;;6.75;2.08;;;8.40;98.20;;;;;;4937302;29;20039;-48
2021/11/29 12:51:54;;;;;;;6.32;2.38;;;8.50;98.20;;;;;;4940832;29;20120;-47
2021/11/29 12:54:38;;;;;;;2.65;1.90;;;8.50;98.20;;;;;;4941275;29;20048;-48
2021/11/29 12:57:24;;;;;;;4.70;1.55;;;8.50;98.10;;;;;;4938705;29;20019;-47